createdAt,value
2023-04-01T00:00:07.352Z,0.00
2023-04-01T00:00:58.126Z,0.00
2023-04-01T00:01:48.929Z,0.00
2023-04-01T00:02:39.854Z,0.00
2023-04-01T00:03:30.848Z,0.00
2023-04-01T00:04:21.704Z,0.00
2023-04-01T00:05:12.464Z,0.00
2023-04-01T00:06:03.250Z,0.00
2023-04-01T00:06:54.066Z,0.00
2023-04-01T00:07:44.833Z,0.00
2023-04-01T00:08:35.639Z,0.00
2023-04-01T00:09:26.417Z,0.00
2023-04-01T00:10:17.407Z,0.00
2023-04-01T00:11:08.191Z,0.00
2023-04-01T00:11:58.997Z,0.00
2023-04-01T00:12:49.797Z,0.00
2023-04-01T00:13:40.583Z,0.00
2023-04-01T00:14:31.375Z,0.00
2023-04-01T00:15:22.179Z,0.00
2023-04-01T00:16:20.517Z,0.00
2023-04-01T00:17:05.137Z,0.00
2023-04-01T00:17:55.404Z,0.00
2023-04-01T00:18:46.146Z,0.00
2023-04-01T00:19:36.938Z,0.00
2023-04-01T00:20:27.725Z,0.00
2023-04-01T00:21:18.512Z,0.00
2023-04-01T00:22:09.319Z,0.00
2023-04-01T00:23:00.115Z,0.00
2023-04-01T00:23:50.886Z,0.00
2023-04-01T00:24:41.677Z,0.00
2023-04-01T00:25:32.714Z,0.00
2023-04-01T00:26:23.739Z,0.00
2023-04-01T00:27:14.524Z,0.00
2023-04-01T00:28:05.320Z,0.00
2023-04-01T00:28:56.144Z,0.00
2023-04-01T00:29:46.912Z,0.00
2023-04-01T00:30:37.691Z,0.00
2023-04-01T00:31:28.528Z,0.00
2023-04-01T00:32:19.268Z,0.00
2023-04-01T00:33:10.108Z,0.00
2023-04-01T00:34:00.851Z,0.00
2023-04-01T00:34:51.660Z,0.00
2023-04-01T00:35:42.440Z,0.00
2023-04-01T00:36:33.292Z,0.00
2023-04-01T00:37:24.041Z,0.00
2023-04-01T00:38:14.833Z,0.00
2023-04-01T00:39:05.606Z,0.00
2023-04-01T00:39:56.402Z,0.00
2023-04-01T00:40:47.181Z,0.00
2023-04-01T00:41:37.994Z,0.00
2023-04-01T00:42:28.766Z,0.00
2023-04-01T00:43:19.565Z,0.00
2023-04-01T00:44:10.346Z,0.00
2023-04-01T00:45:01.141Z,0.00
2023-04-01T00:45:51.932Z,0.00
2023-04-01T00:46:42.754Z,0.00
2023-04-01T00:47:33.550Z,0.00
2023-04-01T00:48:24.305Z,0.00
2023-04-01T00:49:15.098Z,0.00
2023-04-01T00:50:05.893Z,0.00
2023-04-01T00:50:56.674Z,0.00
2023-04-01T00:51:47.474Z,0.00
2023-04-01T00:52:38.289Z,0.00
2023-04-01T00:53:29.057Z,0.00
2023-04-01T00:54:19.841Z,0.00
2023-04-01T00:55:10.639Z,0.00
2023-04-01T00:56:01.424Z,0.00
2023-04-01T00:56:52.268Z,0.00
2023-04-01T00:57:43.024Z,0.00
2023-04-01T00:58:33.818Z,0.00
2023-04-01T00:59:24.623Z,0.00
2023-04-01T01:00:15.392Z,0.00
2023-04-01T01:01:06.229Z,0.00
2023-04-01T01:01:56.994Z,0.00
2023-04-01T01:02:47.854Z,0.00
2023-04-01T01:03:38.684Z,0.00
2023-04-01T01:04:29.464Z,0.00
2023-04-01T01:05:20.258Z,0.00
2023-04-01T01:06:11.032Z,0.00
2023-04-01T01:07:01.821Z,0.00
2023-04-01T01:07:52.639Z,0.00
2023-04-01T01:08:43.406Z,0.00
2023-04-01T01:09:34.206Z,0.00
2023-04-01T01:10:24.985Z,0.00
2023-04-01T01:11:15.760Z,0.00
2023-04-01T01:12:06.569Z,0.00
2023-04-01T01:12:57.347Z,0.00
2023-04-01T01:13:48.142Z,0.00
2023-04-01T01:14:38.933Z,0.00
2023-04-01T01:15:29.981Z,0.00
2023-04-01T01:16:20.863Z,0.00
2023-04-01T01:17:11.621Z,0.00
2023-04-01T01:18:02.504Z,0.00
2023-04-01T01:18:53.248Z,0.00
2023-04-01T01:19:44.036Z,0.00
2023-04-01T01:20:34.824Z,0.00
2023-04-01T01:21:25.611Z,0.00
2023-04-01T01:22:16.393Z,0.00
2023-04-01T01:23:07.204Z,0.00
2023-04-01T01:23:57.977Z,0.00
2023-04-01T01:24:48.760Z,0.00
2023-04-01T01:25:39.548Z,0.00
2023-04-01T01:26:30.329Z,0.00
2023-04-01T01:27:21.135Z,0.00
2023-04-01T01:28:11.923Z,0.00
2023-04-01T01:29:02.716Z,0.00
2023-04-01T01:29:53.505Z,0.00
2023-04-01T01:30:44.365Z,0.00
2023-04-01T01:31:35.108Z,0.00
2023-04-01T01:32:25.969Z,0.00
2023-04-01T01:33:16.702Z,0.00
2023-04-01T01:34:07.518Z,0.00
2023-04-01T01:34:58.285Z,0.00
2023-04-01T01:35:49.076Z,0.00
2023-04-01T01:36:39.859Z,0.00
2023-04-01T01:37:30.643Z,0.00
2023-04-01T01:38:21.608Z,0.00
2023-04-01T01:39:12.366Z,0.00
2023-04-01T01:40:03.161Z,0.00
2023-04-01T01:40:53.955Z,0.00
2023-04-01T01:41:44.736Z,0.00
2023-04-01T01:42:35.569Z,0.00
2023-04-01T01:43:26.349Z,0.00
2023-04-01T01:44:17.133Z,0.00
2023-04-01T01:45:07.917Z,0.00
2023-04-01T01:45:58.725Z,0.00
2023-04-01T01:46:49.499Z,0.00
2023-04-01T01:47:40.325Z,0.00
2023-04-01T01:48:31.080Z,0.00
2023-04-01T01:49:21.874Z,0.00
2023-04-01T01:50:12.658Z,0.00
2023-04-01T01:51:03.449Z,0.00
2023-04-01T01:51:54.235Z,0.00
2023-04-01T01:52:45.036Z,0.00
2023-04-01T01:53:35.853Z,0.00
2023-04-01T01:54:26.626Z,0.00
2023-04-01T01:55:17.405Z,0.00
2023-04-01T01:56:08.197Z,0.00
2023-04-01T01:56:59.021Z,0.00
2023-04-01T01:57:49.776Z,0.00
2023-04-01T01:58:40.567Z,0.00
2023-04-01T01:59:31.366Z,0.00
2023-04-01T02:00:22.171Z,0.00
2023-04-01T02:01:12.982Z,0.00
2023-04-01T02:02:03.814Z,0.00
2023-04-01T02:02:54.579Z,0.00
2023-04-01T02:03:45.339Z,0.00
2023-04-01T02:04:36.186Z,0.00
2023-04-01T02:05:26.933Z,0.00
2023-04-01T02:06:17.716Z,0.00
2023-04-01T02:07:08.509Z,0.00
2023-04-01T02:07:59.307Z,0.00
2023-04-01T02:08:50.117Z,0.00
2023-04-01T02:09:40.885Z,0.00
2023-04-01T02:10:31.669Z,0.00
2023-04-01T02:11:22.474Z,0.00
2023-04-01T02:12:13.250Z,0.00
2023-04-01T02:13:04.040Z,0.00
2023-04-01T02:13:54.848Z,0.00
2023-04-01T02:14:45.623Z,0.00
2023-04-01T02:15:36.450Z,0.00
2023-04-01T02:16:27.277Z,0.00
2023-04-01T02:17:18.015Z,0.00
2023-04-01T02:18:08.859Z,0.00
2023-04-01T02:18:59.588Z,0.00
2023-04-01T02:19:50.377Z,0.00
2023-04-01T02:20:41.168Z,0.00
2023-04-01T02:21:31.965Z,0.00
2023-04-01T02:22:22.741Z,0.00
2023-04-01T02:23:13.544Z,0.00
2023-04-01T02:24:04.344Z,0.00
2023-04-01T02:24:55.120Z,0.00
2023-04-01T02:25:45.919Z,0.00
2023-04-01T02:26:36.700Z,0.00
2023-04-01T02:27:27.482Z,0.00
2023-04-01T02:28:18.281Z,0.00
2023-04-01T02:29:09.070Z,0.00
2023-04-01T02:29:59.859Z,0.00
2023-04-01T02:30:50.641Z,0.00
2023-04-01T02:31:41.481Z,0.00
2023-04-01T02:32:32.252Z,0.00
2023-04-01T02:33:23.033Z,0.00
2023-04-01T02:34:13.813Z,0.00
2023-04-01T02:35:04.608Z,0.00
2023-04-01T02:35:55.419Z,0.00
2023-04-01T02:36:46.190Z,0.00
2023-04-01T02:37:39.239Z,0.00
2023-04-01T02:38:27.840Z,0.00
2023-04-01T02:39:18.679Z,0.00
2023-04-01T02:40:09.433Z,0.00
2023-04-01T02:41:00.216Z,0.00
2023-04-01T02:41:51.009Z,0.00
2023-04-01T02:42:41.811Z,0.00
2023-04-01T02:43:32.593Z,0.00
2023-04-01T02:44:23.383Z,0.00
2023-04-01T02:45:14.178Z,0.00
2023-04-01T02:46:04.976Z,0.00
2023-04-01T02:46:55.791Z,0.00
2023-04-01T02:47:46.570Z,0.00
2023-04-01T02:48:37.340Z,0.00
2023-04-01T02:49:28.123Z,0.00
2023-04-01T02:50:18.924Z,0.00
2023-04-01T02:51:09.715Z,0.00
2023-04-01T02:52:00.504Z,0.00
2023-04-01T02:52:51.294Z,0.00
2023-04-01T02:53:42.089Z,0.00
2023-04-01T02:54:32.897Z,0.00
2023-04-01T02:55:23.699Z,0.00
2023-04-01T02:56:14.489Z,0.00
2023-04-01T02:57:05.324Z,0.00
2023-04-01T02:57:56.100Z,0.00
2023-04-01T02:58:46.889Z,0.00
2023-04-01T02:59:37.677Z,0.00
2023-04-01T03:00:28.465Z,0.00
2023-04-01T03:01:19.312Z,0.00
2023-04-01T03:02:10.137Z,0.00
2023-04-01T03:03:01.329Z,0.00
2023-04-01T03:03:51.603Z,0.00
2023-04-01T03:04:42.383Z,0.00
2023-04-01T03:05:33.359Z,0.00
2023-04-01T03:06:24.181Z,0.00
2023-04-01T03:07:14.985Z,0.00
2023-04-01T03:08:05.772Z,0.00
2023-04-01T03:08:56.564Z,0.00
2023-04-01T03:09:47.385Z,0.00
2023-04-01T03:10:38.174Z,0.00
2023-04-01T03:11:28.927Z,0.00
2023-04-01T03:12:19.730Z,0.00
2023-04-01T03:13:10.628Z,0.00
2023-04-01T03:14:01.408Z,0.00
2023-04-01T03:14:52.197Z,0.00
2023-04-01T03:15:42.988Z,0.00
2023-04-01T03:16:33.798Z,0.00
2023-04-01T03:17:24.588Z,0.00
2023-04-01T03:18:15.369Z,0.00
2023-04-01T03:19:06.150Z,0.00
2023-04-01T03:19:56.944Z,0.00
2023-04-01T03:20:47.752Z,0.00
2023-04-01T03:21:38.528Z,0.00
2023-04-01T03:22:29.314Z,0.00
2023-04-01T03:23:20.113Z,0.00
2023-04-01T03:24:10.900Z,0.00
2023-04-01T03:25:01.711Z,0.00
2023-04-01T03:25:52.483Z,0.00
2023-04-01T03:26:43.263Z,0.00
2023-04-01T03:27:34.069Z,0.00
2023-04-01T03:28:24.854Z,0.00
2023-04-01T03:29:15.654Z,0.00
2023-04-01T03:30:06.457Z,0.00
2023-04-01T03:30:57.310Z,0.00
2023-04-01T03:31:48.047Z,0.00
2023-04-01T03:32:38.844Z,0.00
2023-04-01T03:33:29.626Z,0.00
2023-04-01T03:34:20.417Z,0.00
2023-04-01T03:35:11.223Z,0.00
2023-04-01T03:36:02.018Z,0.00
2023-04-01T03:36:52.772Z,0.00
2023-04-01T03:37:43.577Z,0.00
2023-04-01T03:38:34.341Z,0.00
2023-04-01T03:39:25.132Z,0.00
2023-04-01T03:40:15.938Z,0.00
2023-04-01T03:41:06.713Z,0.00
2023-04-01T03:41:57.504Z,0.00
2023-04-01T03:42:48.322Z,0.00
2023-04-01T03:43:39.096Z,0.00
2023-04-01T03:44:29.884Z,0.00
2023-04-01T03:45:20.668Z,0.00
2023-04-01T03:46:11.566Z,0.00
2023-04-01T03:47:02.332Z,0.00
2023-04-01T03:47:53.242Z,0.00
2023-04-01T03:48:44.039Z,0.00
2023-04-01T03:49:34.833Z,0.00
2023-04-01T03:50:25.614Z,0.00
2023-04-01T03:51:16.419Z,0.00
2023-04-01T03:52:07.196Z,0.00
2023-04-01T03:52:57.999Z,0.00
2023-04-01T03:53:48.782Z,0.00
2023-04-01T03:54:39.577Z,0.00
2023-04-01T03:55:30.583Z,0.00
2023-04-01T03:56:21.545Z,0.00
2023-04-01T03:57:12.356Z,0.00
2023-04-01T03:58:03.129Z,0.00
2023-04-01T03:58:53.906Z,0.00
2023-04-01T03:59:44.708Z,0.00
2023-04-01T04:00:35.489Z,0.00
2023-04-01T04:01:26.284Z,0.00
2023-04-01T04:02:17.096Z,0.00
2023-04-01T04:03:07.975Z,0.00
2023-04-01T04:03:58.838Z,0.00
2023-04-01T04:04:49.613Z,0.00
2023-04-01T04:05:40.395Z,0.00
2023-04-01T04:06:31.201Z,0.00
2023-04-01T04:07:21.970Z,0.00
2023-04-01T04:08:12.766Z,0.00
2023-04-01T04:09:03.565Z,0.00
2023-04-01T04:09:54.334Z,0.00
2023-04-01T04:10:45.142Z,0.00
2023-04-01T04:11:35.906Z,0.00
2023-04-01T04:12:26.691Z,0.00
2023-04-01T04:13:17.495Z,0.00
2023-04-01T04:14:08.278Z,0.00
2023-04-01T04:14:59.071Z,0.00
2023-04-01T04:15:49.877Z,0.00
2023-04-01T04:16:40.655Z,0.00
2023-04-01T04:17:31.476Z,0.00
2023-04-01T04:18:22.251Z,0.00
2023-04-01T04:19:13.277Z,0.00
2023-04-01T04:20:04.059Z,0.00
2023-04-01T04:20:54.841Z,0.00
2023-04-01T04:21:45.635Z,0.00
2023-04-01T04:22:36.420Z,0.00
2023-04-01T04:23:27.228Z,0.00
2023-04-01T04:24:18.011Z,0.00
2023-04-01T04:25:08.754Z,0.00
2023-04-01T04:25:59.396Z,0.00
2023-04-01T04:26:50.055Z,0.00
2023-04-01T04:27:41.051Z,0.00
2023-04-01T04:28:31.845Z,0.00
2023-04-01T04:29:22.600Z,0.00
2023-04-01T04:30:13.396Z,0.00
2023-04-01T04:31:04.146Z,0.00
2023-04-01T04:31:54.968Z,0.00
2023-04-01T04:32:45.729Z,0.00
2023-04-01T04:33:36.495Z,0.00
2023-04-01T04:34:27.254Z,0.00
2023-04-01T04:35:18.030Z,0.00
2023-04-01T04:36:08.843Z,0.00
2023-04-01T04:36:59.798Z,1.00
2023-04-01T04:37:50.659Z,1.00
2023-04-01T04:38:41.568Z,1.00
2023-04-01T04:39:32.418Z,1.00
2023-04-01T04:40:23.286Z,1.00
2023-04-01T04:41:14.175Z,2.00
2023-04-01T04:42:05.111Z,0.00
2023-04-01T04:42:55.898Z,0.00
2023-04-01T04:43:46.708Z,0.00
2023-04-01T04:44:37.339Z,2.00
2023-04-01T04:45:28.182Z,2.00
2023-04-01T04:46:19.065Z,3.00
2023-04-01T04:47:10.003Z,1.00
2023-04-01T04:48:00.905Z,3.00
2023-04-01T04:48:51.750Z,3.00
2023-04-01T04:49:42.624Z,2.00
2023-04-01T04:50:33.498Z,6.00
2023-04-01T04:51:24.372Z,6.00
2023-04-01T04:52:15.246Z,6.00
2023-04-01T04:53:06.124Z,6.00
2023-04-01T04:53:56.994Z,3.00
2023-04-01T04:54:47.865Z,3.00
2023-04-01T04:55:38.738Z,6.00
2023-04-01T04:56:29.622Z,6.00
2023-04-01T04:57:20.496Z,6.00
2023-04-01T04:58:11.353Z,6.00
2023-04-01T04:59:02.228Z,5.00
2023-04-01T04:59:53.113Z,7.00
2023-04-01T05:00:43.968Z,6.00
2023-04-01T05:01:34.864Z,6.00
2023-04-01T05:02:25.784Z,10.00
2023-04-01T05:03:16.893Z,10.00
2023-04-01T05:04:07.756Z,13.00
2023-04-01T05:04:58.666Z,13.00
2023-04-01T05:05:49.554Z,14.00
2023-04-01T05:06:40.435Z,14.00
2023-04-01T05:07:31.317Z,14.00
2023-04-01T05:08:22.212Z,12.00
2023-04-01T05:09:13.111Z,14.00
2023-04-01T05:10:03.991Z,13.00
2023-04-01T05:10:54.871Z,12.00
2023-04-01T05:11:45.778Z,12.00
2023-04-01T05:12:36.643Z,14.00
2023-04-01T05:13:27.542Z,13.00
2023-04-01T05:14:18.446Z,12.00
2023-04-01T05:15:09.325Z,13.00
2023-04-01T05:16:00.204Z,11.00
2023-04-01T05:16:51.143Z,15.00
2023-04-01T05:17:42.020Z,18.00
2023-04-01T05:18:32.905Z,19.00
2023-04-01T05:19:23.812Z,21.00
2023-04-01T05:20:14.686Z,16.00
2023-04-01T05:21:05.568Z,20.00
2023-04-01T05:21:56.443Z,21.00
2023-04-01T05:22:47.340Z,18.00
2023-04-01T05:23:38.228Z,21.00
2023-04-01T05:24:29.125Z,24.00
2023-04-01T05:25:20.020Z,24.00
2023-04-01T05:26:10.923Z,25.00
2023-04-01T05:27:01.840Z,23.00
2023-04-01T05:27:52.715Z,27.00
2023-04-01T05:28:43.589Z,30.00
2023-04-01T05:29:34.482Z,29.00
2023-04-01T05:30:25.377Z,32.00
2023-04-01T05:31:16.341Z,32.00
2023-04-01T05:32:07.171Z,30.00
2023-04-01T05:32:58.094Z,30.00
2023-04-01T05:33:48.973Z,30.00
2023-04-01T05:34:39.849Z,35.00
2023-04-01T05:35:30.966Z,31.00
2023-04-01T05:36:21.874Z,33.00
2023-04-01T05:37:12.763Z,31.00
2023-04-01T05:38:03.672Z,27.00
2023-04-01T05:38:54.549Z,30.00
2023-04-01T05:39:45.445Z,35.00
2023-04-01T05:40:36.322Z,35.00
2023-04-01T05:41:27.222Z,33.00
2023-04-01T05:42:18.119Z,36.00
2023-04-01T05:43:08.997Z,42.00
2023-04-01T05:43:59.869Z,41.00
2023-04-01T05:44:50.777Z,42.00
2023-04-01T05:45:41.656Z,42.00
2023-04-01T05:46:32.583Z,42.00
2023-04-01T05:47:23.468Z,42.00
2023-04-01T05:48:14.343Z,41.00
2023-04-01T05:49:05.243Z,45.00
2023-04-01T05:49:56.127Z,42.00
2023-04-01T05:50:47.017Z,47.00
2023-04-01T05:51:37.913Z,50.00
2023-04-01T05:52:28.795Z,54.00
2023-04-01T05:53:19.694Z,54.00
2023-04-01T05:54:10.575Z,52.00
2023-04-01T05:55:01.504Z,55.00
2023-04-01T05:55:52.347Z,48.00
2023-04-01T05:56:43.229Z,55.00
2023-04-01T05:57:34.136Z,56.00
2023-04-01T05:58:25.019Z,58.00
2023-04-01T05:59:15.900Z,55.00
2023-04-01T06:00:06.788Z,50.00
2023-04-01T06:01:08.481Z,52.00
2023-04-01T06:01:49.570Z,59.00
2023-04-01T06:02:39.306Z,66.00
2023-04-01T06:03:30.290Z,65.00
2023-04-01T06:04:21.195Z,66.00
2023-04-01T06:05:12.071Z,70.00
2023-04-01T06:06:02.956Z,68.00
2023-04-01T06:06:53.833Z,68.00
2023-04-01T06:07:44.730Z,69.00
2023-04-01T06:08:35.599Z,63.00
2023-04-01T06:09:26.499Z,69.00
2023-04-01T06:10:17.383Z,68.00
2023-04-01T06:11:08.265Z,67.00
2023-04-01T06:11:59.144Z,55.00
2023-04-01T06:12:50.070Z,54.00
2023-04-01T06:13:40.945Z,56.00
2023-04-01T06:14:31.843Z,47.00
2023-04-01T06:15:22.728Z,50.00
2023-04-01T06:16:13.657Z,47.00
2023-04-01T06:17:04.509Z,50.00
2023-04-01T06:17:55.408Z,47.00
2023-04-01T06:18:46.290Z,50.00
2023-04-01T06:19:37.211Z,53.00
2023-04-01T06:20:28.149Z,48.00
2023-04-01T06:21:19.011Z,53.00
2023-04-01T06:22:09.882Z,56.00
2023-04-01T06:23:00.762Z,55.00
2023-04-01T06:23:51.794Z,54.00
2023-04-01T06:24:42.772Z,55.00
2023-04-01T06:25:33.741Z,54.00
2023-04-01T06:26:24.757Z,57.00
2023-04-01T06:27:15.639Z,63.00
2023-04-01T06:28:08.431Z,62.00
2023-04-01T06:28:57.427Z,62.00
2023-04-01T06:29:48.326Z,66.00
2023-04-01T06:30:39.210Z,69.00
2023-04-01T06:31:30.165Z,68.00
2023-04-01T06:32:21.137Z,67.00
2023-04-01T06:33:11.952Z,68.00
2023-04-01T06:34:02.915Z,80.00
2023-04-01T06:34:53.755Z,81.00
2023-04-01T06:35:44.672Z,84.00
2023-04-01T06:36:35.600Z,82.00
2023-04-01T06:37:26.455Z,84.00
2023-04-01T06:38:17.349Z,91.00
2023-04-01T06:39:10.529Z,85.00
2023-04-01T06:39:59.011Z,94.00
2023-04-01T06:40:49.893Z,88.00
2023-04-01T06:41:40.785Z,96.00
2023-04-01T06:42:31.671Z,96.00
2023-04-01T06:43:22.579Z,100.00
2023-04-01T06:44:13.450Z,109.00
2023-04-01T06:45:04.346Z,103.00
2023-04-01T06:45:55.250Z,89.00
2023-04-01T06:46:46.121Z,69.00
2023-04-01T06:47:37.034Z,63.00
2023-04-01T06:48:27.900Z,69.00
2023-04-01T06:49:18.777Z,66.00
2023-04-01T06:50:09.674Z,59.00
2023-04-01T06:51:00.549Z,56.00
2023-04-01T06:51:51.451Z,99.00
2023-04-01T06:52:42.358Z,106.00
2023-04-01T06:53:33.261Z,106.00
2023-04-01T06:54:24.167Z,96.00
2023-04-01T06:55:15.054Z,111.00
2023-04-01T06:56:05.949Z,111.00
2023-04-01T06:56:56.873Z,117.00
2023-04-01T06:57:47.753Z,119.00
2023-04-01T06:58:38.680Z,108.00
2023-04-01T06:59:29.554Z,123.00
2023-04-01T07:00:20.457Z,139.00
2023-04-01T07:01:11.384Z,123.00
2023-04-01T07:02:02.561Z,139.00
2023-04-01T07:02:53.212Z,125.00
2023-04-01T07:03:44.088Z,128.00
2023-04-01T07:04:35.017Z,129.00
2023-04-01T07:05:25.885Z,140.00
2023-04-01T07:06:16.771Z,134.00
2023-04-01T07:07:07.672Z,127.00
2023-04-01T07:07:58.564Z,126.00
2023-04-01T07:08:49.484Z,126.00
2023-04-01T07:09:40.377Z,124.00
2023-04-01T07:10:31.274Z,117.00
2023-04-01T07:11:22.176Z,117.00
2023-04-01T07:12:13.080Z,114.00
2023-04-01T07:13:03.971Z,127.00
2023-04-01T07:13:54.897Z,139.00
2023-04-01T07:14:45.789Z,137.00
2023-04-01T07:15:36.694Z,145.00
2023-04-01T07:16:27.616Z,144.00
2023-04-01T07:17:18.498Z,148.00
2023-04-01T07:18:09.463Z,152.00
2023-04-01T07:19:00.385Z,160.00
2023-04-01T07:19:51.336Z,186.00
2023-04-01T07:20:42.221Z,166.00
2023-04-01T07:21:33.743Z,167.00
2023-04-01T07:22:24.025Z,169.00
2023-04-01T07:23:14.933Z,173.00
2023-04-01T07:24:05.859Z,181.00
2023-04-01T07:24:56.766Z,193.00
2023-04-01T07:25:47.695Z,192.00
2023-04-01T07:26:38.608Z,200.00
2023-04-01T07:27:29.526Z,182.00
2023-04-01T07:28:20.442Z,183.00
2023-04-01T07:29:11.409Z,191.00
2023-04-01T07:30:02.324Z,212.00
2023-04-01T07:30:53.250Z,195.00
2023-04-01T07:31:44.126Z,199.00
2023-04-01T07:32:36.401Z,199.00
2023-04-01T07:33:26.136Z,206.00
2023-04-01T07:34:17.059Z,214.00
2023-04-01T07:35:07.970Z,179.00
2023-04-01T07:35:58.937Z,181.00
2023-04-01T07:36:49.807Z,172.00
2023-04-01T07:37:40.719Z,183.00
2023-04-01T07:38:31.667Z,185.00
2023-04-01T07:39:22.553Z,192.00
2023-04-01T07:40:13.463Z,203.00
2023-04-01T07:41:04.388Z,214.00
2023-04-01T07:41:55.294Z,220.00
2023-04-01T07:42:46.208Z,211.00
2023-04-01T07:43:37.117Z,221.00
2023-04-01T07:44:28.157Z,233.00
2023-04-01T07:45:18.984Z,229.00
2023-04-01T07:46:09.932Z,247.00
2023-04-01T07:47:00.822Z,254.00
2023-04-01T07:47:51.768Z,231.00
2023-04-01T07:48:42.648Z,230.00
2023-04-01T07:49:33.563Z,218.00
2023-04-01T07:50:24.509Z,233.00
2023-04-01T07:51:15.415Z,198.00
2023-04-01T07:52:06.309Z,118.00
2023-04-01T07:52:57.216Z,111.00
2023-04-01T07:53:48.119Z,111.00
2023-04-01T07:54:39.029Z,216.00
2023-04-01T07:55:29.951Z,187.00
2023-04-01T07:56:20.854Z,206.00
2023-04-01T07:57:11.795Z,265.00
2023-04-01T07:58:02.686Z,270.00
2023-04-01T07:58:53.602Z,250.00
2023-04-01T07:59:44.539Z,259.00
2023-04-01T08:00:35.464Z,248.00
2023-04-01T08:01:26.393Z,268.00
2023-04-01T08:02:17.325Z,254.00
2023-04-01T08:03:08.335Z,273.00
2023-04-01T08:03:59.487Z,257.00
2023-04-01T08:04:50.559Z,278.00
2023-04-01T08:05:42.950Z,289.00
2023-04-01T08:06:32.362Z,313.00
2023-04-01T08:07:23.272Z,284.00
2023-04-01T08:08:14.221Z,255.00
2023-04-01T08:09:05.121Z,279.00
2023-04-01T08:09:56.029Z,256.00
2023-04-01T08:10:46.926Z,287.00
2023-04-01T08:11:37.844Z,265.00
2023-04-01T08:12:28.767Z,270.00
2023-04-01T08:13:19.658Z,257.00
2023-04-01T08:14:10.591Z,249.00
2023-04-01T08:15:01.540Z,256.00
2023-04-01T08:15:52.432Z,254.00
2023-04-01T08:16:43.429Z,265.00
2023-04-01T08:17:34.476Z,234.00
2023-04-01T08:18:25.333Z,264.00
2023-04-01T08:19:16.236Z,267.00
2023-04-01T08:20:07.152Z,245.00
2023-04-01T08:20:58.077Z,224.00
2023-04-01T08:21:48.998Z,222.00
2023-04-01T08:22:39.904Z,233.00
2023-04-01T08:23:30.833Z,232.00
2023-04-01T08:24:22.869Z,243.00
2023-04-01T08:25:12.572Z,242.00
2023-04-01T08:26:03.480Z,229.00
2023-04-01T08:26:54.397Z,233.00
2023-04-01T08:27:45.295Z,233.00
2023-04-01T08:28:36.219Z,248.00
2023-04-01T08:29:27.131Z,248.00
2023-04-01T08:30:18.177Z,210.00
2023-04-01T08:31:09.135Z,229.00
2023-04-01T08:32:00.169Z,252.00
2023-04-01T08:32:51.150Z,270.00
2023-04-01T08:33:42.026Z,244.00
2023-04-01T08:34:32.956Z,249.00
2023-04-01T08:35:23.860Z,272.00
2023-04-01T08:36:14.811Z,266.00
2023-04-01T08:37:05.707Z,260.00
2023-04-01T08:37:56.606Z,258.00
2023-04-01T08:38:47.572Z,270.00
2023-04-01T08:39:38.467Z,272.00
2023-04-01T08:40:29.401Z,270.00
2023-04-01T08:41:20.312Z,247.00
2023-04-01T08:42:11.227Z,231.00
2023-04-01T08:43:02.151Z,283.00
2023-04-01T08:43:53.054Z,272.00
2023-04-01T08:44:43.958Z,285.00
2023-04-01T08:45:35.144Z,312.00
2023-04-01T08:46:25.697Z,312.00
2023-04-01T08:47:16.591Z,306.00
2023-04-01T08:48:07.564Z,278.00
2023-04-01T08:48:58.493Z,349.00
2023-04-01T08:49:49.412Z,306.00
2023-04-01T08:50:40.322Z,305.00
2023-04-01T08:51:31.228Z,349.00
2023-04-01T08:52:22.149Z,330.00
2023-04-01T08:53:13.057Z,343.00
2023-04-01T08:54:03.978Z,350.00
2023-04-01T08:54:54.883Z,342.00
2023-04-01T08:55:45.806Z,316.00
2023-04-01T08:56:36.694Z,337.00
2023-04-01T08:57:27.654Z,297.00
2023-04-01T08:58:18.521Z,356.00
2023-04-01T08:59:09.453Z,321.00
2023-04-01T09:00:00.348Z,323.00
2023-04-01T09:00:51.288Z,359.00
2023-04-01T09:01:42.174Z,300.00
2023-04-01T09:02:33.214Z,321.00
2023-04-01T09:03:24.178Z,308.00
2023-04-01T09:04:15.157Z,297.00
2023-04-01T09:05:06.037Z,268.00
2023-04-01T09:05:56.954Z,301.00
2023-04-01T09:06:47.881Z,294.00
2023-04-01T09:07:38.794Z,295.00
2023-04-01T09:08:29.748Z,401.00
2023-04-01T09:09:20.624Z,375.00
2023-04-01T09:10:11.522Z,356.00
2023-04-01T09:11:02.441Z,397.00
2023-04-01T09:11:53.401Z,339.00
2023-04-01T09:12:44.272Z,326.00
2023-04-01T09:13:35.183Z,311.00
2023-04-01T09:14:26.116Z,345.00
2023-04-01T09:15:17.022Z,324.00
2023-04-01T09:16:07.961Z,272.00
2023-04-01T09:16:58.844Z,253.00
2023-04-01T09:17:49.801Z,301.00
2023-04-01T09:18:40.707Z,302.00
2023-04-01T09:19:31.606Z,259.00
2023-04-01T09:20:22.510Z,271.00
2023-04-01T09:21:13.447Z,316.00
2023-04-01T09:22:04.338Z,264.00
2023-04-01T09:22:55.276Z,264.00
2023-04-01T09:23:46.173Z,296.00
2023-04-01T09:24:37.100Z,298.00
2023-04-01T09:25:28.009Z,296.00
2023-04-01T09:26:18.931Z,341.00
2023-04-01T09:27:09.847Z,342.00
2023-04-01T09:28:00.767Z,372.00
2023-04-01T09:28:51.675Z,390.00
2023-04-01T09:29:42.588Z,383.00
2023-04-01T09:30:33.536Z,397.00
2023-04-01T09:31:24.489Z,412.00
2023-04-01T09:32:15.340Z,448.00
2023-04-01T09:33:06.271Z,484.00
2023-04-01T09:33:57.195Z,426.00
2023-04-01T09:34:48.104Z,460.00
2023-04-01T09:35:39.096Z,420.00
2023-04-01T09:36:30.007Z,452.00
2023-04-01T09:37:20.933Z,415.00
2023-04-01T09:38:11.832Z,437.00
2023-04-01T09:39:02.769Z,452.00
2023-04-01T09:39:53.675Z,406.00
2023-04-01T09:40:44.584Z,404.00
2023-04-01T09:41:35.502Z,468.00
2023-04-01T09:42:26.399Z,375.00
2023-04-01T09:43:17.318Z,398.00
2023-04-01T09:44:08.228Z,453.00
2023-04-01T09:44:59.188Z,427.00
2023-04-01T09:45:50.076Z,390.00
2023-04-01T09:46:41.084Z,431.00
2023-04-01T09:47:32.011Z,283.00
2023-04-01T09:48:22.910Z,219.00
2023-04-01T09:49:13.820Z,204.00
2023-04-01T09:50:04.745Z,257.00
2023-04-01T09:50:55.651Z,218.00
2023-04-01T09:51:46.576Z,210.00
2023-04-01T09:52:37.486Z,204.00
2023-04-01T09:53:28.400Z,216.00
2023-04-01T09:54:19.324Z,176.00
2023-04-01T09:55:10.250Z,339.00
2023-04-01T09:56:01.169Z,332.00
2023-04-01T09:56:52.102Z,359.00
2023-04-01T09:57:42.980Z,340.00
2023-04-01T09:58:33.898Z,386.00
2023-04-01T09:59:24.819Z,397.00
2023-04-01T10:00:15.729Z,384.00
2023-04-01T10:01:06.641Z,340.00
2023-04-01T10:01:57.677Z,341.00
2023-04-01T10:02:48.574Z,326.00
2023-04-01T10:03:39.459Z,254.00
2023-04-01T10:04:30.382Z,239.00
2023-04-01T10:05:21.320Z,262.00
2023-04-01T10:06:12.335Z,291.00
2023-04-01T10:07:03.262Z,289.00
2023-04-01T10:07:54.177Z,339.00
2023-04-01T10:08:45.088Z,344.00
2023-04-01T10:09:35.988Z,342.00
2023-04-01T10:10:26.899Z,361.00
2023-04-01T10:11:19.287Z,362.00
2023-04-01T10:12:08.981Z,375.00
2023-04-01T10:12:59.894Z,368.00
2023-04-01T10:13:50.819Z,381.00
2023-04-01T10:14:41.757Z,392.00
2023-04-01T10:15:33.070Z,445.00
2023-04-01T10:16:23.560Z,431.00
2023-04-01T10:17:14.482Z,447.00
2023-04-01T10:18:05.455Z,451.00
2023-04-01T10:18:56.345Z,444.00
2023-04-01T10:19:47.282Z,434.00
2023-04-01T10:20:38.186Z,443.00
2023-04-01T10:21:29.110Z,469.00
2023-04-01T10:22:20.020Z,480.00
2023-04-01T10:23:10.954Z,475.00
2023-04-01T10:24:01.852Z,486.00
2023-04-01T10:24:52.774Z,473.00
2023-04-01T10:25:43.701Z,483.00
2023-04-01T10:26:34.609Z,451.00
2023-04-01T10:27:25.530Z,467.00
2023-04-01T10:28:16.455Z,462.00
2023-04-01T10:29:07.350Z,463.00
2023-04-01T10:29:58.293Z,469.00
2023-04-01T10:30:49.202Z,430.00
2023-04-01T10:31:40.164Z,339.00
2023-04-01T10:32:31.093Z,304.00
2023-04-01T10:33:21.953Z,376.00
2023-04-01T10:34:12.879Z,371.00
2023-04-01T10:35:03.799Z,322.00
2023-04-01T10:35:54.764Z,298.00
2023-04-01T10:36:45.690Z,376.00
2023-04-01T10:37:36.601Z,439.00
2023-04-01T10:38:28.425Z,382.00
2023-04-01T10:39:18.156Z,394.00
2023-04-01T10:40:09.065Z,540.00
2023-04-01T10:40:59.983Z,462.00
2023-04-01T10:41:50.912Z,403.00
2023-04-01T10:42:41.818Z,372.00
2023-04-01T10:43:32.718Z,299.00
2023-04-01T10:44:23.633Z,293.00
2023-04-01T10:45:14.554Z,324.00
2023-04-01T10:46:05.523Z,309.00
2023-04-01T10:46:56.415Z,307.00
2023-04-01T10:47:47.389Z,310.00
2023-04-01T10:48:38.229Z,321.00
2023-04-01T10:49:29.170Z,333.00
2023-04-01T10:50:20.080Z,386.00
2023-04-01T10:51:11.006Z,393.00
2023-04-01T10:52:01.941Z,397.00
2023-04-01T10:52:52.882Z,385.00
2023-04-01T10:53:43.793Z,390.00
2023-04-01T10:54:34.705Z,366.00
2023-04-01T10:55:25.621Z,383.00
2023-04-01T10:56:16.544Z,424.00